createdAt,value
2022-12-31T00:00:08.063Z,100021.16
2022-12-31T00:02:34.607Z,100024.53
2022-12-31T00:05:02.309Z,100039.28
2022-12-31T00:07:29.106Z,100036.56
2022-12-31T00:09:55.619Z,100041.63
2022-12-31T00:12:22.057Z,100043.16
2022-12-31T00:14:48.480Z,100045.59
2022-12-31T00:17:15.008Z,100044.47
2022-12-31T00:19:43.543Z,100048.66
2022-12-31T00:22:10.013Z,100053.69
2022-12-31T00:24:36.506Z,100054.44
2022-12-31T00:27:02.899Z,100055.97
2022-12-31T00:29:29.608Z,100051.66
2022-12-31T00:31:55.982Z,100054.34
2022-12-31T00:34:22.507Z,100059.44
2022-12-31T00:36:49.122Z,100068.97
2022-12-31T00:39:15.509Z,100057.56
2022-12-31T00:41:43.925Z,100059.19
2022-12-31T00:44:13.997Z,100068.66
2022-12-31T00:49:06.403Z,100073.91
2022-12-31T00:51:33.242Z,100079.88
2022-12-31T00:53:59.765Z,100072.78
2022-12-31T00:56:28.451Z,100066.72
2022-12-31T00:58:55.224Z,100066.53
2022-12-31T01:01:30.351Z,100069.00
2022-12-31T01:04:03.727Z,100081.03
2022-12-31T01:06:31.007Z,100078.28
2022-12-31T01:08:57.531Z,100086.91
2022-12-31T01:11:28.955Z,100080.69
2022-12-31T01:14:16.487Z,100098.97
2022-12-31T01:16:48.508Z,100078.88
2022-12-31T01:19:21.773Z,100086.66
2022-12-31T01:21:49.380Z,100096.06
2022-12-31T01:24:16.881Z,100097.72
2022-12-31T01:26:43.987Z,100097.56
2022-12-31T01:29:11.711Z,100106.13
2022-12-31T01:31:38.961Z,100109.69
2022-12-31T01:34:06.512Z,100115.84
2022-12-31T01:36:34.482Z,100111.59
2022-12-31T01:39:02.971Z,100114.28
2022-12-31T01:41:35.219Z,100116.91
2022-12-31T01:44:12.020Z,100111.66
2022-12-31T01:46:47.250Z,100113.44
2022-12-31T01:49:24.119Z,100118.72
2022-12-31T01:52:02.276Z,100108.31
2022-12-31T01:54:33.492Z,100109.16
2022-12-31T01:57:00.442Z,100103.00
2022-12-31T01:59:29.089Z,100106.53
2022-12-31T02:01:56.200Z,100102.09
2022-12-31T02:04:24.773Z,100100.19
2022-12-31T02:07:04.497Z,100103.59
2022-12-31T02:09:32.112Z,100108.72
2022-12-31T02:11:58.939Z,100096.38
2022-12-31T02:14:41.104Z,100098.84
2022-12-31T02:17:24.244Z,100109.25
2022-12-31T02:20:28.144Z,100099.56
2022-12-31T02:23:12.792Z,100111.69
2022-12-31T02:26:10.473Z,100106.38
2022-12-31T02:29:03.645Z,100099.28
2022-12-31T02:31:36.936Z,100098.44
2022-12-31T02:34:13.517Z,100100.28
2022-12-31T02:36:44.997Z,100102.91
2022-12-31T02:39:12.302Z,100100.34
2022-12-31T02:41:50.576Z,100095.88
2022-12-31T02:44:20.830Z,100105.44
2022-12-31T02:47:13.386Z,100093.19
2022-12-31T02:49:55.282Z,100101.03
2022-12-31T02:52:31.676Z,100082.00
2022-12-31T02:55:19.907Z,100100.53
2022-12-31T02:58:07.893Z,100100.00
2022-12-31T03:00:59.324Z,100099.41
2022-12-31T03:03:27.388Z,100085.72
2022-12-31T03:05:55.519Z,100090.91
2022-12-31T03:08:23.270Z,100106.63
2022-12-31T03:10:49.912Z,100116.25
2022-12-31T03:13:17.395Z,100112.09
2022-12-31T03:15:43.811Z,100119.94
2022-12-31T03:18:13.340Z,100119.03
2022-12-31T03:21:01.504Z,100126.88
2022-12-31T03:23:35.310Z,100111.28
2022-12-31T03:26:02.931Z,100094.84
2022-12-31T03:28:30.693Z,100106.19
2022-12-31T03:31:01.084Z,100104.34
2022-12-31T03:33:32.043Z,100100.09
2022-12-31T03:35:58.548Z,100106.09
2022-12-31T03:38:25.031Z,100105.25
2022-12-31T03:40:52.915Z,100111.41
2022-12-31T03:43:20.154Z,100105.25
2022-12-31T03:45:54.636Z,100104.56
2022-12-31T03:48:22.935Z,100107.38
2022-12-31T03:50:50.002Z,100117.91
2022-12-31T03:53:17.538Z,100100.56
2022-12-31T03:55:44.472Z,100105.81
2022-12-31T03:58:10.883Z,100102.38
2022-12-31T04:00:37.290Z,100110.06
2022-12-31T04:03:03.726Z,100108.28
2022-12-31T04:05:30.236Z,100104.75
2022-12-31T04:07:56.600Z,100107.44
2022-12-31T04:10:22.964Z,100106.50
2022-12-31T04:12:49.437Z,100104.69
2022-12-31T04:15:19.719Z,100103.75
2022-12-31T04:17:47.220Z,100109.91
2022-12-31T04:20:14.675Z,100113.38
2022-12-31T04:22:41.220Z,100125.63
2022-12-31T04:25:11.323Z,100125.78
2022-12-31T04:27:39.961Z,100138.03
2022-12-31T04:30:08.817Z,100128.41
2022-12-31T04:32:35.329Z,100140.50
2022-12-31T04:35:01.724Z,100134.50
2022-12-31T04:37:28.193Z,100137.09
2022-12-31T04:39:55.444Z,100148.50
2022-12-31T04:42:24.279Z,100149.22
2022-12-31T04:44:50.635Z,100142.34
2022-12-31T04:47:23.285Z,100139.72
2022-12-31T04:49:50.298Z,100137.97
2022-12-31T04:52:16.651Z,100156.22
2022-12-31T04:54:43.051Z,100140.56
2022-12-31T04:57:09.465Z,100128.47
2022-12-31T04:59:35.821Z,100119.75
2022-12-31T05:02:02.310Z,100142.53
2022-12-31T05:04:29.155Z,100135.66
2022-12-31T05:06:55.641Z,100130.44
2022-12-31T05:09:24.016Z,100129.56
2022-12-31T05:11:50.487Z,100139.97
2022-12-31T05:14:17.182Z,100130.34
2022-12-31T05:16:43.663Z,100120.78
2022-12-31T05:19:10.378Z,100108.47
2022-12-31T05:21:37.036Z,100092.75
2022-12-31T05:24:03.593Z,100097.16
2022-12-31T05:26:29.980Z,100089.28
2022-12-31T05:28:56.492Z,100092.91
2022-12-31T05:31:23.040Z,100076.47
2022-12-31T05:33:49.489Z,100069.31
2022-12-31T05:36:15.855Z,100075.41
2022-12-31T05:38:42.422Z,100071.09
2022-12-31T05:41:10.433Z,100071.88
2022-12-31T05:43:36.970Z,100088.41
2022-12-31T05:46:04.626Z,100096.13
2022-12-31T05:48:31.273Z,100111.09
2022-12-31T05:50:57.693Z,100112.09
2022-12-31T05:53:24.247Z,100126.97
2022-12-31T05:55:50.766Z,100139.38
2022-12-31T05:58:17.175Z,100143.13
2022-12-31T06:00:43.620Z,100143.22
2022-12-31T06:03:10.564Z,100142.22
2022-12-31T06:05:40.642Z,100156.16
2022-12-31T06:08:07.009Z,100157.09
2022-12-31T06:10:33.486Z,100147.53
2022-12-31T06:12:59.851Z,100155.31
2022-12-31T06:15:26.252Z,100150.84
2022-12-31T06:17:52.712Z,100150.75
2022-12-31T06:20:19.212Z,100158.66
2022-12-31T06:22:45.547Z,100169.25
2022-12-31T06:25:11.935Z,100175.53
2022-12-31T06:27:38.406Z,100174.75
2022-12-31T06:30:05.327Z,100178.28
2022-12-31T06:32:31.725Z,100186.22
2022-12-31T06:34:58.111Z,100180.22
2022-12-31T06:37:24.468Z,100174.22
2022-12-31T06:39:50.941Z,100162.81
2022-12-31T06:42:17.318Z,100176.97
2022-12-31T06:44:43.663Z,100173.50
2022-12-31T06:47:10.063Z,100170.09
2022-12-31T06:49:36.448Z,100183.31
2022-12-31T06:52:03.217Z,100170.34
2022-12-31T06:54:29.637Z,100175.50
2022-12-31T06:56:56.365Z,100163.34
2022-12-31T06:59:26.894Z,100166.81
2022-12-31T07:02:17.267Z,100168.66
2022-12-31T07:05:06.576Z,100166.97
2022-12-31T07:08:11.214Z,100151.28
2022-12-31T07:10:56.553Z,100143.44
2022-12-31T07:13:53.364Z,100154.88
2022-12-31T07:16:32.850Z,100161.97
2022-12-31T07:19:23.840Z,100170.78
2022-12-31T07:21:52.996Z,100181.31
2022-12-31T07:24:19.681Z,100188.25
2022-12-31T07:27:06.679Z,100189.13
2022-12-31T07:29:36.088Z,100197.84
2022-12-31T07:32:26.366Z,100182.03
2022-12-31T07:35:09.269Z,100184.47
2022-12-31T07:37:51.151Z,100193.31
2022-12-31T07:40:45.364Z,100203.91
2022-12-31T07:43:30.939Z,100194.38
2022-12-31T07:46:22.313Z,100204.88
2022-12-31T07:48:48.860Z,100198.72
2022-12-31T07:51:15.572Z,100193.47
2022-12-31T07:53:41.948Z,100203.94
2022-12-31T07:56:09.557Z,100202.34
2022-12-31T07:59:13.512Z,100198.09
2022-12-31T08:01:48.907Z,100195.25
2022-12-31T08:04:29.446Z,100194.38
2022-12-31T08:07:15.468Z,100202.25
2022-12-31T08:09:56.549Z,100208.41
2022-12-31T08:12:24.480Z,100214.59
2022-12-31T08:14:51.275Z,100213.66
2022-12-31T08:17:19.272Z,100211.88
2022-12-31T08:19:45.971Z,100186.50
2022-12-31T08:22:37.893Z,100195.00
2022-12-31T08:25:23.568Z,100184.09
2022-12-31T08:28:22.063Z,100206.88
2022-12-31T08:31:33.327Z,100199.00
2022-12-31T08:34:07.793Z,100191.91
2022-12-31T08:36:59.967Z,100198.69
2022-12-31T08:39:58.237Z,100196.00
2022-12-31T08:42:37.931Z,100211.66
2022-12-31T08:45:25.973Z,100216.03
2022-12-31T08:48:21.722Z,100215.09
2022-12-31T08:50:48.265Z,100217.50
2022-12-31T08:53:14.895Z,100212.34
2022-12-31T08:55:43.667Z,100210.50
2022-12-31T08:58:37.197Z,100214.72
2022-12-31T09:01:07.037Z,100192.66
2022-12-31T09:03:33.464Z,100194.34
2022-12-31T09:06:10.574Z,100195.06
2022-12-31T09:08:55.831Z,100197.44
2022-12-31T09:11:34.049Z,100191.81
2022-12-31T09:14:12.775Z,100197.72
2022-12-31T09:16:51.690Z,100206.34
2022-12-31T09:19:19.279Z,100201.88
2022-12-31T09:21:46.100Z,100206.34
2022-12-31T09:24:14.591Z,100209.03
2022-12-31T09:27:02.531Z,100211.59
2022-12-31T09:29:41.574Z,100211.59
2022-12-31T09:32:29.954Z,100212.38
2022-12-31T09:35:14.167Z,100214.91
2022-12-31T09:37:49.478Z,100220.31
2022-12-31T09:40:32.886Z,100218.53
2022-12-31T09:43:36.101Z,100218.47
2022-12-31T09:46:14.737Z,100207.84
2022-12-31T09:48:58.996Z,100226.00
2022-12-31T09:51:50.885Z,100222.44
2022-12-31T09:54:34.845Z,100229.78
2022-12-31T09:57:32.099Z,100223.00
2022-12-31T10:00:11.788Z,100226.53
2022-12-31T10:03:18.669Z,100220.47
2022-12-31T10:06:22.273Z,100222.41
2022-12-31T10:09:07.278Z,100218.16
2022-12-31T10:11:55.985Z,100201.69
2022-12-31T10:14:47.170Z,100207.69
2022-12-31T10:17:51.819Z,100203.28
2022-12-31T10:20:23.727Z,100203.31
2022-12-31T10:23:39.308Z,100207.69
2022-12-31T10:26:19.602Z,100203.38
2022-12-31T10:29:06.060Z,100193.91
2022-12-31T10:31:57.864Z,100196.44
2022-12-31T10:35:02.705Z,100195.44
2022-12-31T10:37:43.441Z,100192.91
2022-12-31T10:40:23.614Z,100179.34
2022-12-31T10:43:30.154Z,100172.34
2022-12-31T10:46:37.153Z,100181.78
2022-12-31T10:49:26.795Z,100180.88
2022-12-31T10:52:06.324Z,100193.69
2022-12-31T10:54:35.396Z,100206.75
2022-12-31T10:57:15.217Z,100196.25
2022-12-31T11:00:09.180Z,100186.50
2022-12-31T11:03:01.290Z,100178.44
2022-12-31T11:05:49.567Z,100187.00
2022-12-31T11:08:18.697Z,100185.31
2022-12-31T11:10:55.380Z,100166.03
2022-12-31T11:13:48.983Z,100165.06
2022-12-31T11:16:30.571Z,100178.97
2022-12-31T11:18:56.976Z,100187.53
2022-12-31T11:21:54.698Z,100186.53
2022-12-31T11:24:32.301Z,100194.22
2022-12-31T11:27:17.422Z,100193.81
2022-12-31T11:30:04.503Z,100191.78
2022-12-31T11:33:06.151Z,100181.78
2022-12-31T11:35:45.581Z,100186.69
2022-12-31T11:38:25.882Z,100188.13
2022-12-31T11:41:29.957Z,100205.41
2022-12-31T11:44:14.656Z,100212.88
2022-12-31T11:47:04.239Z,100201.03
2022-12-31T11:49:49.003Z,100216.59
2022-12-31T11:52:39.619Z,100212.00
2022-12-31T11:55:22.875Z,100202.13
2022-12-31T11:57:50.977Z,100206.16
2022-12-31T12:00:22.782Z,100202.53
2022-12-31T12:02:59.221Z,100186.66
2022-12-31T12:05:26.183Z,100186.50
2022-12-31T12:07:54.159Z,100179.47
2022-12-31T12:10:36.591Z,100177.69
2022-12-31T12:13:16.581Z,100163.75
2022-12-31T12:15:59.281Z,100148.94
2022-12-31T12:18:40.635Z,100149.34
2022-12-31T12:21:11.789Z,100157.84
2022-12-31T12:23:38.867Z,100170.50
2022-12-31T12:26:06.438Z,100158.22
2022-12-31T12:28:45.550Z,100162.41
2022-12-31T12:31:22.188Z,100156.75
2022-12-31T12:33:51.441Z,100146.94
2022-12-31T12:36:20.360Z,100166.41
2022-12-31T12:38:46.791Z,100164.53
2022-12-31T12:41:25.298Z,100162.81
2022-12-31T12:44:15.526Z,100154.03
2022-12-31T12:46:48.686Z,100155.19
2022-12-31T12:49:28.846Z,100149.06
2022-12-31T12:52:26.324Z,100144.75
2022-12-31T12:55:01.879Z,100144.00
2022-12-31T12:58:05.037Z,100157.22
2022-12-31T13:00:51.925Z,100151.44
2022-12-31T13:07:01.840Z,100164.56
2022-12-31T13:10:25.429Z,100169.84
2022-12-31T13:13:27.269Z,100167.38
2022-12-31T13:16:19.317Z,100178.16
2022-12-31T13:18:57.535Z,100181.00
2022-12-31T13:21:30.028Z,100161.75
2022-12-31T13:24:20.930Z,100178.38
2022-12-31T13:27:05.802Z,100190.59
2022-12-31T13:29:34.639Z,100180.88
2022-12-31T13:32:04.634Z,100179.84
2022-12-31T13:34:38.735Z,100180.72
2022-12-31T13:37:18.338Z,100176.28
2022-12-31T13:39:46.901Z,100178.88
2022-12-31T13:42:31.259Z,100174.47
2022-12-31T13:45:12.755Z,100185.91
2022-12-31T13:47:48.130Z,100177.53
2022-12-31T13:50:22.249Z,100180.47
2022-12-31T13:52:56.435Z,100182.31
2022-12-31T13:55:34.069Z,100173.59
2022-12-31T13:58:14.085Z,100188.34
2022-12-31T14:00:44.661Z,100203.34
2022-12-31T14:03:24.615Z,100204.28
2022-12-31T14:06:06.698Z,100210.47
2022-12-31T14:08:33.059Z,100198.25
2022-12-31T14:11:20.632Z,100196.41
2022-12-31T14:13:49.741Z,100198.09
2022-12-31T14:16:22.237Z,100206.75
2022-12-31T14:19:02.188Z,100210.16
2022-12-31T14:21:32.064Z,100204.91
2022-12-31T14:24:18.133Z,100213.66
2022-12-31T14:26:50.247Z,100229.41
2022-12-31T14:29:45.431Z,100209.16
2022-12-31T14:32:48.829Z,100211.69
2022-12-31T14:35:55.725Z,100209.84
2022-12-31T14:38:36.117Z,100213.41
2022-12-31T14:41:26.545Z,100219.44
2022-12-31T14:44:12.571Z,100213.25
2022-12-31T14:47:05.727Z,100220.13
2022-12-31T14:49:41.698Z,100221.78
2022-12-31T14:52:33.015Z,100217.38
2022-12-31T14:55:09.935Z,100208.69
2022-12-31T14:58:17.091Z,100219.44
2022-12-31T15:00:38.150Z,100227.38
2022-12-31T15:03:41.242Z,100225.78
2022-12-31T15:06:35.110Z,100241.78
2022-12-31T15:09:22.910Z,100238.38
2022-12-31T15:12:06.823Z,100234.03
2022-12-31T15:15:09.526Z,100245.09
2022-12-31T15:17:57.083Z,100239.28
2022-12-31T15:20:44.235Z,100233.19
2022-12-31T15:23:22.988Z,100245.53
2022-12-31T15:25:55.535Z,100247.31
2022-12-31T15:28:32.462Z,100256.91
2022-12-31T15:31:20.448Z,100257.75
2022-12-31T15:34:25.210Z,100259.53
2022-12-31T15:36:57.350Z,100267.34
2022-12-31T15:39:39.299Z,100271.09
2022-12-31T15:42:37.781Z,100263.28
2022-12-31T15:45:11.678Z,100270.47
2022-12-31T15:47:42.894Z,100274.25
2022-12-31T15:50:18.318Z,100280.78
2022-12-31T15:52:51.355Z,100280.00
2022-12-31T15:55:25.991Z,100288.88
2022-12-31T15:57:56.455Z,100307.25
2022-12-31T16:00:23.986Z,100287.31
2022-12-31T16:02:53.125Z,100297.81
2022-12-31T16:05:22.865Z,100283.84
2022-12-31T16:07:53.503Z,100288.25
2022-12-31T16:10:31.823Z,100298.75
2022-12-31T16:12:59.707Z,100302.16
2022-12-31T16:15:30.376Z,100316.13
2022-12-31T16:18:17.249Z,100307.31
2022-12-31T16:20:48.923Z,100315.13
2022-12-31T16:23:27.381Z,100299.44
2022-12-31T16:26:00.502Z,100305.63
2022-12-31T16:28:32.264Z,100310.03
2022-12-31T16:31:05.741Z,100319.69
2022-12-31T16:33:32.668Z,100309.25
2022-12-31T16:36:01.484Z,100303.84
2022-12-31T16:38:33.404Z,100305.69
2022-12-31T16:41:04.654Z,100313.66
2022-12-31T16:43:41.894Z,100324.00
2022-12-31T16:46:27.943Z,100323.44
2022-12-31T16:48:58.143Z,100319.34
2022-12-31T16:51:30.005Z,100308.94
2022-12-31T16:53:57.751Z,100313.44
2022-12-31T16:56:34.439Z,100311.56
2022-12-31T16:59:07.075Z,100306.31
2022-12-31T17:01:36.810Z,100314.19
2022-12-31T17:04:09.456Z,100322.94
2022-12-31T17:06:35.952Z,100326.56
2022-12-31T17:09:15.281Z,100338.84
2022-12-31T17:11:43.349Z,100322.16
2022-12-31T17:14:09.654Z,100315.28
2022-12-31T17:17:01.595Z,100316.97
2022-12-31T17:19:42.095Z,100314.44
2022-12-31T17:22:30.729Z,100301.22
2022-12-31T17:25:08.988Z,100295.25
2022-12-31T17:27:36.466Z,100298.88
2022-12-31T17:30:22.949Z,100292.59
2022-12-31T17:32:53.913Z,100285.47
2022-12-31T17:35:35.336Z,100292.28
2022-12-31T17:38:23.465Z,100308.94
2022-12-31T17:40:53.862Z,100309.97
2022-12-31T17:43:22.504Z,100285.56
2022-12-31T17:45:52.184Z,100309.25
2022-12-31T17:48:20.222Z,100303.84
2022-12-31T17:50:51.816Z,100310.88
2022-12-31T17:53:19.285Z,100303.69
2022-12-31T17:55:49.684Z,100310.47
2022-12-31T17:58:33.010Z,100286.56
2022-12-31T18:01:00.137Z,100302.91
2022-12-31T18:03:27.059Z,100333.31
2022-12-31T18:05:53.749Z,100327.69
2022-12-31T18:08:20.136Z,100310.00
2022-12-31T18:10:46.660Z,100310.25
2022-12-31T18:13:18.140Z,100314.94
2022-12-31T18:15:45.038Z,100308.97
2022-12-31T18:18:24.476Z,100305.47
2022-12-31T18:21:05.833Z,100300.19
2022-12-31T18:23:39.347Z,100304.50
2022-12-31T18:26:06.006Z,100300.03
2022-12-31T18:28:32.461Z,100315.56
2022-12-31T18:30:59.258Z,100298.72
2022-12-31T18:33:26.763Z,100302.94
2022-12-31T18:36:10.236Z,100297.53
2022-12-31T18:38:39.370Z,100289.56
2022-12-31T18:41:07.234Z,100287.78
2022-12-31T18:43:33.656Z,100291.19
2022-12-31T18:46:00.174Z,100273.59
2022-12-31T18:48:26.734Z,100279.63
2022-12-31T18:50:53.244Z,100267.25
2022-12-31T18:53:22.943Z,100293.44
2022-12-31T18:55:52.327Z,100275.91
2022-12-31T18:58:19.736Z,100281.09
2022-12-31T19:00:47.313Z,100288.91
2022-12-31T19:03:22.182Z,100294.09
2022-12-31T19:05:50.777Z,100289.69
2022-12-31T19:08:18.477Z,100295.78
2022-12-31T19:10:46.268Z,100298.34
2022-12-31T19:13:14.362Z,100286.84
2022-12-31T19:15:49.497Z,100279.84
2022-12-31T19:18:16.612Z,100280.78
2022-12-31T19:20:43.518Z,100288.63
2022-12-31T19:23:20.546Z,100286.03
2022-12-31T19:25:48.259Z,100289.69
2022-12-31T19:28:20.988Z,100289.59
2022-12-31T19:30:47.493Z,100310.50
2022-12-31T19:33:15.674Z,100317.44
2022-12-31T19:35:42.811Z,100320.22
2022-12-31T19:38:18.637Z,100307.03
2022-12-31T19:40:46.889Z,100313.34
2022-12-31T19:43:15.926Z,100327.19
2022-12-31T19:45:43.630Z,100307.53
2022-12-31T19:48:15.436Z,100312.16
2022-12-31T19:50:44.460Z,100305.63
2022-12-31T19:53:13.244Z,100298.81
2022-12-31T19:55:40.098Z,100295.28
2022-12-31T19:58:07.642Z,100307.47
2022-12-31T20:00:34.140Z,100298.59
2022-12-31T20:03:00.554Z,100297.53
2022-12-31T20:05:27.833Z,100301.78
2022-12-31T20:07:54.306Z,100301.72
2022-12-31T20:10:20.702Z,100305.97
2022-12-31T20:12:47.180Z,100307.53
2022-12-31T20:15:13.552Z,100320.66
2022-12-31T20:17:40.044Z,100314.50
2022-12-31T20:20:10.116Z,100323.09
2022-12-31T20:22:36.615Z,100328.19
2022-12-31T20:25:03.063Z,100320.25
2022-12-31T20:27:29.768Z,100322.66
2022-12-31T20:29:56.197Z,100318.94
2022-12-31T20:32:22.645Z,100315.97
2022-12-31T20:34:49.004Z,100323.84
2022-12-31T20:37:15.405Z,100312.13
2022-12-31T20:39:42.659Z,100314.81
2022-12-31T20:42:09.109Z,100320.94
2022-12-31T20:44:35.483Z,100311.94
2022-12-31T20:47:01.933Z,100304.72
2022-12-31T20:50:00.666Z,100316.91
2022-12-31T20:52:14.704Z,100319.38
2022-12-31T20:54:41.225Z,100313.84
2022-12-31T20:57:08.281Z,100301.56
2022-12-31T20:59:34.708Z,100307.72
2022-12-31T21:04:47.551Z,100330.28
2022-12-31T21:07:13.993Z,100319.53
2022-12-31T21:09:40.415Z,100312.47
2022-12-31T21:12:25.194Z,100309.81
2022-12-31T21:14:51.609Z,100319.41
2022-12-31T21:17:17.951Z,100322.88
2022-12-31T21:19:44.408Z,100324.50
2022-12-31T21:22:11.410Z,100327.66
2022-12-31T21:24:39.019Z,100311.81
2022-12-31T21:27:06.167Z,100314.81
2022-12-31T21:29:34.709Z,100279.22
2022-12-31T21:32:02.301Z,100277.84
2022-12-31T21:34:28.642Z,100288.38
2022-12-31T21:36:55.352Z,100271.72
2022-12-31T21:39:22.647Z,100274.03
2022-12-31T21:41:51.709Z,100295.88
2022-12-31T21:44:23.363Z,100303.41
2022-12-31T21:47:39.789Z,100295.03
2022-12-31T21:50:07.590Z,100298.38
2022-12-31T21:52:34.952Z,100298.97
2022-12-31T21:55:22.718Z,100311.22
2022-12-31T22:00:56.263Z,100306.47
2022-12-31T22:03:27.568Z,100315.91
2022-12-31T22:05:55.811Z,100311.19
2022-12-31T22:08:23.132Z,100313.88
2022-12-31T22:10:52.709Z,100317.28
2022-12-31T22:13:20.061Z,100305.81
2022-12-31T22:15:48.193Z,100317.38
2022-12-31T22:18:16.744Z,100311.19
2022-12-31T22:20:43.389Z,100320.91
2022-12-31T22:23:10.133Z,100332.06
2022-12-31T22:25:38.238Z,100314.41
2022-12-31T22:28:37.456Z,100314.25
2022-12-31T22:30:52.495Z,100312.38
2022-12-31T22:33:19.085Z,100317.50
2022-12-31T22:35:45.546Z,100347.41
2022-12-31T22:38:12.533Z,100330.44
2022-12-31T22:40:39.327Z,100346.38
2022-12-31T22:43:06.279Z,100320.75
2022-12-31T22:45:32.636Z,100334.75
2022-12-31T22:47:59.150Z,100328.75
2022-12-31T22:50:25.497Z,100332.13
2022-12-31T22:52:51.907Z,100333.84
2022-12-31T22:55:18.286Z,100340.72
2022-12-31T22:57:44.787Z,100336.38
2022-12-31T23:00:13.497Z,100332.66
2022-12-31T23:02:41.952Z,100338.88
2022-12-31T23:05:14.957Z,100358.31
2022-12-31T23:07:42.912Z,100353.81
2022-12-31T23:10:28.407Z,100346.59
2022-12-31T23:12:54.789Z,100336.81
2022-12-31T23:15:39.807Z,100342.78
2022-12-31T23:18:24.708Z,100339.31
2022-12-31T23:21:09.605Z,100334.88
2022-12-31T23:23:36.160Z,100343.53
2022-12-31T23:26:02.530Z,100352.97
2022-12-31T23:28:28.893Z,100351.78
2022-12-31T23:30:55.353Z,100349.81
2022-12-31T23:33:25.144Z,100346.44
2022-12-31T23:36:02.149Z,100341.91
2022-12-31T23:38:28.555Z,100344.56
2022-12-31T23:40:54.924Z,100347.19
2022-12-31T23:43:22.243Z,100353.34
2022-12-31T23:45:52.608Z,100345.59
2022-12-31T23:48:19.462Z,100359.47
2022-12-31T23:50:53.009Z,100360.38
2022-12-31T23:53:20.122Z,100352.41
2022-12-31T23:55:46.506Z,100353.91
2022-12-31T23:58:12.881Z,100359.94
